Time;durP1;ratioP1;P1;durP2;ratioP2;P2;SDS_P1;SDS_P2;PMS_P1;PMS_P2;Temp;Humidity;BMP_temperature;BMP_pressure;BME280_temperature;BME280_humidity;BME280_pressure;Samples;Min_cycle;Max_cycle;Signal;HPM_P1;HPM_P2
2021/06/30 00:00:37;;;;;;;3.33;2.70;;;;;;;;;;5093608;28;20486;-53
2021/06/30 00:03:06;;;;;;;2.60;2.40;;;;;;;;;;5093670;28;20495;-53
2021/06/30 00:05:33;;;;;;;3.17;2.77;;;;;;;;;;5093494;28;20508;-53
2021/06/30 00:08:00;;;;;;;3.87;3.33;;;;;;;;;;5093520;28;20446;-53
2021/06/30 00:10:27;;;;;;;4.90;3.40;;;;;;;;;;5093561;28;20442;-53
2021/06/30 00:12:55;;;;;;;4.77;4.37;;;;;;;;;;5093393;28;20470;-53
2021/06/30 00:15:23;;;;;;;5.37;4.87;;;;;;;;;;5093322;28;20469;-53
2021/06/30 00:17:51;;;;;;;6.67;6.07;;;;;;;;;;5093163;28;20861;-52
2021/06/30 00:20:19;;;;;;;7.50;5.90;;;;;;;;;;5093262;28;20450;-53
2021/06/30 00:22:47;;;;;;;6.47;5.87;;;;;;;;;;5093530;28;20430;-52
2021/06/30 00:25:15;;;;;;;6.70;5.33;;;;;;;;;;5097606;28;20462;-53
2021/06/30 00:27:44;;;;;;;6.50;5.90;;;;;;;;;;5097249;28;20980;-53
2021/06/30 00:30:11;;;;;;;7.70;5.80;;;;;;;;;;5097734;28;20542;-53
2021/06/30 00:32:38;;;;;;;7.50;6.80;;;;;;;;;;5097530;28;21016;-52
2021/06/30 00:35:06;;;;;;;6.67;6.10;;;;;;;;;;5116823;22;21025;-59
2021/06/30 00:37:35;;;;;;;10.77;6.70;;;;;;;;;;5077014;28;20981;-60
2021/06/30 00:40:02;;;;;;;7.50;6.70;;;;;;;;;;5077201;28;20442;-59
2021/06/30 00:42:30;;;;;;;8.40;6.87;;;;;;;;;;5077081;28;20497;-59
2021/06/30 00:44:57;;;;;;;7.07;6.33;;;;;;;;;;5076860;28;20809;-60
2021/06/30 00:47:25;;;;;;;7.70;7.00;;;;;;;;;;5077891;28;20567;-59
2021/06/30 00:49:52;;;;;;;7.30;6.60;;;;;;;;;;5076904;28;20809;-59
2021/06/30 00:52:19;;;;;;;8.00;6.83;;;;;;;;;;5076730;28;20446;-59
2021/06/30 00:54:48;;;;;;;6.50;5.90;;;;;;;;;;5076454;28;20592;-59
2021/06/30 00:57:17;;;;;;;6.20;5.60;;;;;;;;;;5076808;28;20471;-58
2021/06/30 00:59:44;;;;;;;6.07;5.57;;;;;;;;;;5076499;28;20872;-58
2021/06/30 01:02:12;;;;;;;5.80;5.13;;;;;;;;;;5076442;28;20477;-58
2021/06/30 01:04:39;;;;;;;6.23;4.97;;;;;;;;;;5076180;28;20443;-61
2021/06/30 01:07:06;;;;;;;5.87;5.27;;;;;;;;;;5076125;28;20950;-59
2021/06/30 01:09:34;;;;;;;6.50;4.63;;;;;;;;;;5076258;28;20450;-59
2021/06/30 01:12:02;;;;;;;4.90;4.50;;;;;;;;;;5076528;28;20443;-60
2021/06/30 01:14:31;;;;;;;11.83;5.33;;;;;;;;;;5075866;28;20910;-60
2021/06/30 01:16:59;;;;;;;4.80;4.40;;;;;;;;;;5076325;28;20518;-60
2021/06/30 01:19:27;;;;;;;4.77;4.37;;;;;;;;;;5076275;28;20516;-60
2021/06/30 01:21:54;;;;;;;5.23;4.53;;;;;;;;;;5076132;28;20513;-61
2021/06/30 01:24:23;;;;;;;4.73;4.30;;;;;;;;;;5076201;28;20525;-59
2021/06/30 01:26:51;;;;;;;5.60;4.87;;;;;;;;;;5076295;28;20492;-59
2021/06/30 01:29:20;;;;;;;5.00;4.57;;;;;;;;;;5075713;28;20496;-59
2021/06/30 01:31:47;;;;;;;7.33;5.57;;;;;;;;;;5075815;28;20446;-59
2021/06/30 01:34:15;;;;;;;5.20;4.53;;;;;;;;;;5075939;28;20483;-59
2021/06/30 01:36:46;;;;;;;5.77;5.27;;;;;;;;;;5074902;28;20478;-59
2021/06/30 01:39:13;;;;;;;4.83;4.43;;;;;;;;;;5075644;28;20455;-59
2021/06/30 01:41:42;;;;;;;5.67;5.10;;;;;;;;;;5075877;28;20477;-59
2021/06/30 01:44:10;;;;;;;5.97;5.37;;;;;;;;;;5075812;28;20439;-59
2021/06/30 01:46:37;;;;;;;5.63;4.40;;;;;;;;;;5075643;28;20516;-59
2021/06/30 01:49:05;;;;;;;5.13;4.73;;;;;;;;;;5075416;28;20838;-59
2021/06/30 01:51:32;;;;;;;6.13;5.13;;;;;;;;;;5075604;28;20447;-59
2021/06/30 01:54:00;;;;;;;5.77;5.20;;;;;;;;;;5075523;28;20532;-59
2021/06/30 01:56:28;;;;;;;5.67;4.90;;;;;;;;;;5075494;28;20463;-59
2021/06/30 01:59:01;;;;;;;5.40;4.70;;;;;;;;;;5075681;28;20447;-59
2021/06/30 02:01:28;;;;;;;5.50;5.00;;;;;;;;;;5075374;28;20450;-59
2021/06/30 02:03:56;;;;;;;5.90;5.20;;;;;;;;;;5075852;28;20440;-59
2021/06/30 02:06:24;;;;;;;6.70;6.00;;;;;;;;;;5075613;28;20557;-60
2021/06/30 02:08:51;;;;;;;5.73;5.23;;;;;;;;;;5075777;28;20447;-59
2021/06/30 02:11:18;;;;;;;5.40;4.50;;;;;;;;;;5075453;28;20497;-59
2021/06/30 02:13:46;;;;;;;5.30;4.50;;;;;;;;;;5075296;28;20471;-58
2021/06/30 02:16:14;;;;;;;5.53;5.00;;;;;;;;;;5074902;28;20990;-60
2021/06/30 02:18:42;;;;;;;5.10;4.60;;;;;;;;;;5075212;28;20439;-59
2021/06/30 02:21:10;;;;;;;6.80;4.53;;;;;;;;;;5074905;28;20447;-59
2021/06/30 02:23:37;;;;;;;6.90;6.20;;;;;;;;;;5075561;28;20847;-60
2021/06/30 02:26:04;;;;;;;5.70;5.10;;;;;;;;;;5074797;28;20516;-59
2021/06/30 02:28:32;;;;;;;5.37;4.90;;;;;;;;;;5074601;28;20439;-59
2021/06/30 02:30:59;;;;;;;5.30;4.73;;;;;;;;;;5074877;28;20443;-59
2021/06/30 02:33:28;;;;;;;4.47;4.07;;;;;;;;;;5074833;28;20529;-59
2021/06/30 02:35:55;;;;;;;4.17;3.83;;;;;;;;;;5074622;28;20479;-59
2021/06/30 02:38:23;;;;;;;4.20;3.80;;;;;;;;;;5074753;28;20447;-59
2021/06/30 02:40:51;;;;;;;7.93;3.87;;;;;;;;;;5074817;28;20451;-59
2021/06/30 02:43:18;;;;;;;4.03;3.63;;;;;;;;;;5075009;28;20435;-59
2021/06/30 02:45:45;;;;;;;4.10;3.70;;;;;;;;;;5074424;28;20979;-59
2021/06/30 02:48:12;;;;;;;4.13;3.83;;;;;;;;;;5074337;28;20497;-59
2021/06/30 02:50:41;;;;;;;5.77;4.77;;;;;;;;;;5074737;28;20469;-59
2021/06/30 02:53:08;;;;;;;5.43;3.80;;;;;;;;;;5074330;28;20446;-59
2021/06/30 02:55:36;;;;;;;4.83;4.43;;;;;;;;;;5074241;28;20467;-59
2021/06/30 02:58:03;;;;;;;5.73;4.93;;;;;;;;;;5074442;28;20451;-59
2021/06/30 03:00:30;;;;;;;5.60;5.10;;;;;;;;;;5074464;28;20447;-59
2021/06/30 03:02:58;;;;;;;6.00;5.40;;;;;;;;;;5074207;28;20934;-60
2021/06/30 03:05:25;;;;;;;6.70;5.87;;;;;;;;;;5073794;28;20458;-60
2021/06/30 03:07:53;;;;;;;8.47;7.40;;;;;;;;;;5074095;28;20451;-59
2021/06/30 03:10:21;;;;;;;6.73;6.03;;;;;;;;;;5073702;28;20481;-59
2021/06/30 03:12:48;;;;;;;8.93;8.00;;;;;;;;;;5073720;28;20496;-59
2021/06/30 03:15:16;;;;;;;8.40;7.53;;;;;;;;;;5073806;28;20483;-59
2021/06/30 03:17:44;;;;;;;8.73;7.83;;;;;;;;;;5073871;28;20857;-59
2021/06/30 03:20:12;;;;;;;9.60;8.70;;;;;;;;;;5073879;28;20447;-60
2021/06/30 03:22:40;;;;;;;9.20;8.40;;;;;;;;;;5073829;28;20917;-60
2021/06/30 03:25:09;;;;;;;12.83;9.10;;;;;;;;;;5073750;28;20524;-60
2021/06/30 03:27:37;;;;;;;11.93;10.83;;;;;;;;;;5074982;28;20501;-59
2021/06/30 03:30:04;;;;;;;11.60;10.17;;;;;;;;;;5075640;28;20435;-59
2021/06/30 03:32:32;;;;;;;14.43;12.27;;;;;;;;;;5076039;28;20447;-60
2021/06/30 03:34:59;;;;;;;14.97;12.10;;;;;;;;;;5075150;28;20495;-59
2021/06/30 03:37:26;;;;;;;13.80;12.27;;;;;;;;;;5075223;28;20439;-59
2021/06/30 03:39:54;;;;;;;14.07;12.67;;;;;;;;;;5075864;28;20447;-59
2021/06/30 03:42:22;;;;;;;14.23;12.70;;;;;;;;;;5076491;28;20500;-59
2021/06/30 03:44:50;;;;;;;16.80;14.17;;;;;;;;;;5075764;28;20478;-59
2021/06/30 03:47:17;;;;;;;17.43;14.90;;;;;;;;;;5075547;28;20455;-59
2021/06/30 03:49:44;;;;;;;21.37;15.40;;;;;;;;;;5075790;28;20500;-59
2021/06/30 03:52:11;;;;;;;20.23;17.87;;;;;;;;;;5076292;28;20501;-60
2021/06/30 03:54:39;;;;;;;20.67;16.53;;;;;;;;;;5073548;28;21067;-59
2021/06/30 03:57:06;;;;;;;20.97;17.77;;;;;;;;;;5073408;28;20493;-59
2021/06/30 03:59:35;;;;;;;22.63;17.00;;;;;;;;;;5072705;28;20934;-60
2021/06/30 04:02:02;;;;;;;24.00;18.50;;;;;;;;;;5073112;28;20447;-60
2021/06/30 04:04:29;;;;;;;23.00;18.47;;;;;;;;;;5072899;28;20440;-60
2021/06/30 04:08:18;;;;;;;27.67;21.60;;;;;;;;;;5091458;27;21114;-60
2021/06/30 04:10:46;;;;;;;32.63;21.50;;;;;;;;;;5091233;28;20447;-61
2021/06/30 04:13:16;;;;;;;28.40;20.70;;;;;;;;;;5091097;28;20454;-61
2021/06/30 04:15:43;;;;;;;34.10;22.77;;;;;;;;;;5090705;28;20528;-60
2021/06/30 04:18:10;;;;;;;31.43;21.80;;;;;;;;;;5090752;28;20523;-61
2021/06/30 04:20:40;;;;;;;37.53;22.80;;;;;;;;;;5090616;28;20508;-61
2021/06/30 04:23:08;;;;;;;35.00;24.10;;;;;;;;;;5090290;28;20431;-61
2021/06/30 04:25:36;;;;;;;31.23;22.97;;;;;;;;;;5090460;28;20462;-61
2021/06/30 04:28:04;;;;;;;35.87;25.03;;;;;;;;;;5090437;28;20519;-61
2021/06/30 04:30:31;;;;;;;33.40;24.53;;;;;;;;;;5090337;28;20447;-60
2021/06/30 04:32:59;;;;;;;43.27;26.90;;;;;;;;;;5090435;28;20529;-61
2021/06/30 04:35:26;;;;;;;39.80;27.37;;;;;;;;;;5090235;28;20467;-61
2021/06/30 04:37:53;;;;;;;37.03;25.67;;;;;;;;;;5089965;28;20442;-59
2021/06/30 04:40:20;;;;;;;35.87;25.67;;;;;;;;;;5090076;28;20500;-61
2021/06/30 04:42:49;;;;;;;45.00;27.10;;;;;;;;;;5090020;28;20451;-61
2021/06/30 04:45:16;;;;;;;42.13;28.10;;;;;;;;;;5089867;28;20462;-62
2021/06/30 04:47:43;;;;;;;41.50;29.73;;;;;;;;;;5090256;28;20572;-61
2021/06/30 04:50:11;;;;;;;39.37;27.00;;;;;;;;;;5090433;28;20807;-61
2021/06/30 04:52:39;;;;;;;39.23;25.83;;;;;;;;;;5090190;28;20450;-61
2021/06/30 04:55:07;;;;;;;38.10;26.70;;;;;;;;;;5090744;28;20459;-61
2021/06/30 04:57:35;;;;;;;40.50;26.57;;;;;;;;;;5091144;28;20438;-61
2021/06/30 05:00:04;;;;;;;36.43;25.50;;;;;;;;;;5090485;28;20529;-61
2021/06/30 05:02:31;;;;;;;40.60;25.43;;;;;;;;;;5090515;28;20472;-61
2021/06/30 05:04:58;;;;;;;48.23;27.80;;;;;;;;;;5089848;28;20466;-61
2021/06/30 05:07:26;;;;;;;48.40;29.77;;;;;;;;;;5089895;28;20982;-60
2021/06/30 05:09:53;;;;;;;46.07;28.43;;;;;;;;;;5089712;28;20930;-60
2021/06/30 05:12:20;;;;;;;45.70;28.67;;;;;;;;;;5089851;28;20450;-60
2021/06/30 05:14:47;;;;;;;42.23;25.60;;;;;;;;;;5089713;28;20520;-60
2021/06/30 05:17:16;;;;;;;42.90;27.13;;;;;;;;;;5089614;28;20434;-60
2021/06/30 05:19:43;;;;;;;41.13;25.80;;;;;;;;;;5075402;28;20439;-60
2021/06/30 05:22:10;;;;;;;38.17;23.80;;;;;;;;;;5075949;28;20492;-60
2021/06/30 05:24:38;;;;;;;38.60;23.30;;;;;;;;;;5075714;28;20500;-62
2021/06/30 05:27:05;;;;;;;32.80;21.60;;;;;;;;;;5075676;28;21055;-61
2021/06/30 05:29:33;;;;;;;34.73;22.80;;;;;;;;;;5075602;28;20493;-61
2021/06/30 05:32:00;;;;;;;28.50;21.50;;;;;;;;;;5075357;28;20448;-60
2021/06/30 05:34:29;;;;;;;33.50;21.80;;;;;;;;;;5075631;28;20443;-61
2021/06/30 05:36:57;;;;;;;24.27;19.70;;;;;;;;;;5075667;28;20450;-60
2021/06/30 05:39:24;;;;;;;27.37;19.17;;;;;;;;;;5075121;28;20439;-60
2021/06/30 05:41:51;;;;;;;28.70;19.57;;;;;;;;;;5075195;28;20451;-61
2021/06/30 05:44:19;;;;;;;26.80;19.43;;;;;;;;;;5075159;28;20930;-60
2021/06/30 05:46:46;;;;;;;28.50;18.97;;;;;;;;;;5075440;28;20575;-59
2021/06/30 05:49:14;;;;;;;24.23;18.10;;;;;;;;;;5075761;28;20443;-60
2021/06/30 05:51:42;;;;;;;26.37;18.80;;;;;;;;;;5075065;28;20454;-61
2021/06/30 05:54:10;;;;;;;25.77;19.77;;;;;;;;;;5074954;28;20546;-60
2021/06/30 05:56:37;;;;;;;22.10;17.50;;;;;;;;;;5075172;28;20533;-60
2021/06/30 05:59:05;;;;;;;26.90;18.23;;;;;;;;;;5074739;28;20957;-60
2021/06/30 06:01:32;;;;;;;22.47;16.40;;;;;;;;;;5075195;28;20505;-60
2021/06/30 06:04:00;;;;;;;20.33;17.20;;;;;;;;;;5075077;28;20866;-60
2021/06/30 06:06:27;;;;;;;19.30;16.40;;;;;;;;;;5074536;28;20987;-60
2021/06/30 06:08:56;;;;;;;17.03;15.10;;;;;;;;;;5074885;28;20507;-61
2021/06/30 06:11:24;;;;;;;20.70;16.33;;;;;;;;;;5075049;28;20443;-59
2021/06/30 06:13:51;;;;;;;19.53;15.27;;;;;;;;;;5075096;28;20443;-60
2021/06/30 06:16:21;;;;;;;19.77;15.17;;;;;;;;;;5074672;28;20493;-60
2021/06/30 06:18:48;;;;;;;22.40;16.93;;;;;;;;;;5074654;28;20446;-59
2021/06/30 06:21:16;;;;;;;20.20;15.43;;;;;;;;;;5074652;28;20447;-59
2021/06/30 06:23:43;;;;;;;17.77;15.57;;;;;;;;;;5074549;28;20428;-60
2021/06/30 06:26:14;;;;;;;15.83;13.90;;;;;;;;;;5074566;28;20524;-60
2021/06/30 06:28:41;;;;;;;17.93;14.80;;;;;;;;;;5074342;28;20463;-59
2021/06/30 06:31:12;;;;;;;17.07;13.67;;;;;;;;;;5073269;28;20470;-60
2021/06/30 06:33:40;;;;;;;16.30;14.03;;;;;;;;;;5074262;28;20456;-60
2021/06/30 06:36:07;;;;;;;21.23;15.37;;;;;;;;;;5075847;28;20528;-60
2021/06/30 06:38:34;;;;;;;18.17;15.60;;;;;;;;;;5074234;28;20435;-60
2021/06/30 06:41:01;;;;;;;18.83;15.63;;;;;;;;;;5073934;28;20451;-61
2021/06/30 06:43:30;;;;;;;20.50;14.00;;;;;;;;;;5074377;28;20443;-61
2021/06/30 06:45:57;;;;;;;18.10;15.10;;;;;;;;;;5074017;28;20463;-58
2021/06/30 06:48:25;;;;;;;21.20;15.63;;;;;;;;;;5073979;28;20540;-60
2021/06/30 06:50:52;;;;;;;21.63;16.80;;;;;;;;;;5074016;28;20496;-61
2021/06/30 06:53:19;;;;;;;21.03;14.40;;;;;;;;;;5073881;28;20448;-62
2021/06/30 06:55:46;;;;;;;22.47;17.03;;;;;;;;;;5074561;28;20459;-63
2021/06/30 06:58:14;;;;;;;24.30;17.10;;;;;;;;;;5073890;28;20444;-60
2021/06/30 07:00:42;;;;;;;23.07;15.77;;;;;;;;;;5073781;28;20513;-61
2021/06/30 07:03:10;;;;;;;19.73;15.23;;;;;;;;;;5073480;28;20953;-61
2021/06/30 07:05:37;;;;;;;25.87;14.57;;;;;;;;;;5073493;28;20468;-60
2021/06/30 07:08:04;;;;;;;16.43;11.60;;;;;;;;;;5072908;28;20568;-61
2021/06/30 07:10:31;;;;;;;18.43;11.93;;;;;;;;;;5073235;28;20889;-61
2021/06/30 07:12:59;;;;;;;14.40;10.80;;;;;;;;;;5073194;28;20556;-61
2021/06/30 07:15:26;;;;;;;13.33;9.47;;;;;;;;;;5073585;28;20519;-61
2021/06/30 07:17:55;;;;;;;14.03;11.00;;;;;;;;;;5073272;28;20442;-59
2021/06/30 07:20:22;;;;;;;16.50;11.10;;;;;;;;;;5073130;28;20992;-60
2021/06/30 07:22:49;;;;;;;15.33;10.20;;;;;;;;;;5073025;28;20451;-60
2021/06/30 07:25:19;;;;;;;13.93;9.93;;;;;;;;;;5073360;28;20471;-60
2021/06/30 07:27:46;;;;;;;17.10;11.20;;;;;;;;;;5073237;28;20479;-62
2021/06/30 07:30:14;;;;;;;13.90;10.83;;;;;;;;;;5073432;28;20454;-60
2021/06/30 07:32:41;;;;;;;14.03;9.53;;;;;;;;;;5072976;28;20451;-61
2021/06/30 07:35:10;;;;;;;14.70;9.60;;;;;;;;;;5073423;28;20870;-62
2021/06/30 07:37:38;;;;;;;13.70;9.37;;;;;;;;;;5073871;28;20443;-62
2021/06/30 07:40:05;;;;;;;14.50;9.97;;;;;;;;;;5072638;28;20848;-62
2021/06/30 07:42:33;;;;;;;12.23;9.03;;;;;;;;;;5072584;28;20443;-62
2021/06/30 07:45:00;;;;;;;11.80;9.30;;;;;;;;;;5073039;28;20467;-63
2021/06/30 07:47:27;;;;;;;12.50;10.37;;;;;;;;;;5073076;28;20529;-64
2021/06/30 07:49:54;;;;;;;12.33;9.83;;;;;;;;;;5072846;28;20443;-61
2021/06/30 07:52:23;;;;;;;13.60;10.07;;;;;;;;;;5072979;28;20443;-62
2021/06/30 07:54:50;;;;;;;11.50;9.33;;;;;;;;;;5072612;28;20966;-62
2021/06/30 07:57:17;;;;;;;14.57;10.63;;;;;;;;;;5072787;28;20502;-62
2021/06/30 07:59:45;;;;;;;14.13;10.47;;;;;;;;;;5072559;28;20501;-62
2021/06/30 08:02:12;;;;;;;17.27;11.53;;;;;;;;;;5072820;28;20455;-62
2021/06/30 08:04:39;;;;;;;15.40;10.27;;;;;;;;;;5072760;28;20447;-61
2021/06/30 08:07:06;;;;;;;14.47;10.30;;;;;;;;;;5072607;28;20454;-63
2021/06/30 08:09:35;;;;;;;19.80;11.27;;;;;;;;;;5072566;28;20988;-61
2021/06/30 08:12:05;;;;;;;16.30;11.27;;;;;;;;;;5072487;28;20508;-61
2021/06/30 08:14:32;;;;;;;12.70;10.40;;;;;;;;;;5072867;28;20451;-62
2021/06/30 08:17:00;;;;;;;15.87;10.27;;;;;;;;;;5072387;28;20943;-61
2021/06/30 08:19:27;;;;;;;15.10;11.13;;;;;;;;;;5073113;28;20435;-62
2021/06/30 08:21:54;;;;;;;16.70;10.37;;;;;;;;;;5072331;28;20462;-61
2021/06/30 08:24:21;;;;;;;14.57;10.37;;;;;;;;;;5072624;28;20953;-60
2021/06/30 08:26:50;;;;;;;13.40;10.43;;;;;;;;;;5072673;28;20462;-63
2021/06/30 08:29:19;;;;;;;18.70;10.20;;;;;;;;;;5072320;28;20486;-63
2021/06/30 08:31:47;;;;;;;16.27;9.67;;;;;;;;;;5072406;28;20451;-63
2021/06/30 08:34:14;;;;;;;16.07;10.57;;;;;;;;;;5072695;28;20443;-63
2021/06/30 08:36:42;;;;;;;15.87;10.50;;;;;;;;;;5072175;28;20471;-62
2021/06/30 08:39:10;;;;;;;13.40;9.70;;;;;;;;;;5072264;28;20455;-63
2021/06/30 08:41:37;;;;;;;15.93;9.67;;;;;;;;;;5072011;28;20542;-62
2021/06/30 08:44:06;;;;;;;12.40;9.93;;;;;;;;;;5072555;28;20466;-62
2021/06/30 08:46:35;;;;;;;11.60;9.30;;;;;;;;;;5072517;28;20470;-61
2021/06/30 08:49:04;;;;;;;11.90;9.20;;;;;;;;;;5071754;28;20481;-62
2021/06/30 08:51:32;;;;;;;15.20;10.43;;;;;;;;;;5072043;28;20443;-62
2021/06/30 08:54:00;;;;;;;12.50;9.87;;;;;;;;;;5074078;28;20447;-61
2021/06/30 08:56:31;;;;;;;14.57;9.70;;;;;;;;;;5076225;28;20490;-61
2021/06/30 08:58:59;;;;;;;11.37;10.10;;;;;;;;;;5075511;28;20752;-61
2021/06/30 09:01:28;;;;;;;13.37;10.77;;;;;;;;;;5075982;28;20534;-62
2021/06/30 09:03:56;;;;;;;10.30;9.10;;;;;;;;;;5076106;28;20450;-61
2021/06/30 09:06:24;;;;;;;12.50;9.67;;;;;;;;;;5075746;28;20506;-62
2021/06/30 09:09:09;;;;;;;12.30;9.40;;;;;;;;;;5075352;28;20494;-61
2021/06/30 09:11:37;;;;;;;12.07;10.10;;;;;;;;;;5075784;28;20514;-61
2021/06/30 09:14:21;;;;;;;12.20;8.53;;;;;;;;;;5075790;28;20536;-61
2021/06/30 09:17:09;;;;;;;12.27;8.70;;;;;;;;;;5074064;28;20482;-61
2021/06/30 09:19:57;;;;;;;11.97;8.20;;;;;;;;;;5075782;28;20446;-60
2021/06/30 09:22:26;;;;;;;9.17;8.27;;;;;;;;;;5075169;28;20447;-61
2021/06/30 09:24:54;;;;;;;9.60;8.60;;;;;;;;;;5075385;28;20550;-62
2021/06/30 09:27:37;;;;;;;9.07;7.77;;;;;;;;;;5075236;28;20435;-59
2021/06/30 09:30:05;;;;;;;13.63;8.37;;;;;;;;;;5075316;28;20424;-62
2021/06/30 09:32:34;;;;;;;10.50;8.60;;;;;;;;;;5075014;28;20443;-59
2021/06/30 09:35:23;;;;;;;9.57;8.60;;;;;;;;;;5075015;28;20509;-61
2021/06/30 09:37:50;;;;;;;9.47;8.20;;;;;;;;;;5075497;28;20428;-61
2021/06/30 09:40:18;;;;;;;9.20;7.70;;;;;;;;;;5075795;28;20443;-58
2021/06/30 09:42:45;;;;;;;11.17;8.10;;;;;;;;;;5075037;28;20435;-60
2021/06/30 09:45:14;;;;;;;9.10;7.43;;;;;;;;;;5074858;28;20880;-61
2021/06/30 09:47:45;;;;;;;9.00;7.30;;;;;;;;;;5074849;28;20444;-62
2021/06/30 09:50:13;;;;;;;8.60;7.70;;;;;;;;;;5075159;28;20450;-61
2021/06/30 09:52:43;;;;;;;10.40;9.07;;;;;;;;;;5075532;28;20450;-60
2021/06/30 09:55:29;;;;;;;9.47;8.00;;;;;;;;;;5075378;28;20467;-61
2021/06/30 09:57:58;;;;;;;8.20;7.13;;;;;;;;;;5075177;28;20436;-61
2021/06/30 10:00:27;;;;;;;11.00;8.63;;;;;;;;;;5075718;28;20451;-60
2021/06/30 10:02:55;;;;;;;10.87;8.53;;;;;;;;;;5075092;28;20501;-60
2021/06/30 10:05:32;;;;;;;8.43;7.63;;;;;;;;;;5074595;28;20470;-61
2021/06/30 10:08:10;;;;;;;17.13;9.50;;;;;;;;;;5074273;28;20946;-61
2021/06/30 10:10:37;;;;;;;9.40;8.50;;;;;;;;;;5074236;28;20459;-59
2021/06/30 10:13:05;;;;;;;10.97;9.87;;;;;;;;;;5074305;28;20970;-61
2021/06/30 10:15:33;;;;;;;11.67;9.43;;;;;;;;;;5075020;28;20471;-61
2021/06/30 10:18:02;;;;;;;10.07;8.90;;;;;;;;;;5074502;28;20446;-60
2021/06/30 10:20:29;;;;;;;10.50;9.40;;;;;;;;;;5074755;28;20456;-61
2021/06/30 10:22:56;;;;;;;11.33;9.23;;;;;;;;;;5074847;28;20443;-61
2021/06/30 10:25:25;;;;;;;13.87;10.40;;;;;;;;;;5074566;28;20475;-60
2021/06/30 10:27:53;;;;;;;11.17;9.97;;;;;;;;;;5074651;28;20439;-60
2021/06/30 10:30:21;;;;;;;11.00;9.90;;;;;;;;;;5075079;28;20497;-59
2021/06/30 10:32:58;;;;;;;11.70;10.50;;;;;;;;;;5075039;28;20808;-60
2021/06/30 10:35:25;;;;;;;11.30;10.30;;;;;;;;;;5076049;28;20471;-61
2021/06/30 10:37:53;;;;;;;12.40;11.30;;;;;;;;;;5075516;28;20457;-60
2021/06/30 10:40:21;;;;;;;12.17;10.40;;;;;;;;;;5075720;28;20447;-60
2021/06/30 10:43:05;;;;;;;12.50;10.53;;;;;;;;;;5075153;28;20443;-60
2021/06/30 10:45:32;;;;;;;12.00;10.90;;;;;;;;;;5074993;28;20463;-60
2021/06/30 10:48:03;;;;;;;14.43;10.73;;;;;;;;;;5075003;28;20537;-61
2021/06/30 10:50:32;;;;;;;13.40;12.00;;;;;;;;;;5075843;28;20845;-60
2021/06/30 10:53:25;;;;;;;12.40;11.10;;;;;;;;;;5074512;28;20443;-60
2021/06/30 10:55:54;;;;;;;12.83;11.53;;;;;;;;;;5074560;28;20471;-59
2021/06/30 10:58:24;;;;;;;12.33;11.10;;;;;;;;;;5074011;28;20963;-60
2021/06/30 11:00:52;;;;;;;11.70;10.70;;;;;;;;;;5074001;28;20423;-60
2021/06/30 11:03:27;;;;;;;12.80;11.60;;;;;;;;;;5073781;28;20501;-60
2021/06/30 11:05:55;;;;;;;13.50;10.80;;;;;;;;;;5073441;28;20485;-61
2021/06/30 11:08:49;;;;;;;13.77;12.00;;;;;;;;;;5073856;28;20470;-60
2021/06/30 11:11:17;;;;;;;13.60;12.30;;;;;;;;;;5037788;28;20528;-61
2021/06/30 11:13:59;;;;;;;13.73;12.33;;;;;;;;;;5073119;28;20942;-61
2021/06/30 11:16:45;;;;;;;13.80;12.40;;;;;;;;;;5073527;28;20882;-60
2021/06/30 11:19:27;;;;;;;13.57;12.00;;;;;;;;;;5073302;28;20435;-62
2021/06/30 11:21:56;;;;;;;14.23;12.83;;;;;;;;;;5072773;28;20520;-61
2021/06/30 11:24:43;;;;;;;14.00;12.70;;;;;;;;;;5073045;28;20964;-62
2021/06/30 11:27:25;;;;;;;15.17;12.93;;;;;;;;;;5073252;28;20457;-60
2021/06/30 11:29:55;;;;;;;14.73;13.20;;;;;;;;;;5073305;28;20471;-59
2021/06/30 11:32:38;;;;;;;15.47;14.00;;;;;;;;;;5073317;28;20462;-60
2021/06/30 11:35:06;;;;;;;17.07;14.20;;;;;;;;;;5072676;28;20994;-61
2021/06/30 11:37:33;;;;;;;17.43;15.73;;;;;;;;;;5073332;28;20447;-61
2021/06/30 11:40:05;;;;;;;17.47;15.73;;;;;;;;;;5073213;28;20443;-61
2021/06/30 11:42:32;;;;;;;17.03;15.33;;;;;;;;;;5073901;28;20427;-63
2021/06/30 11:45:01;;;;;;;18.20;16.17;;;;;;;;;;5073045;28;20808;-62
2021/06/30 11:47:28;;;;;;;18.37;16.47;;;;;;;;;;5072934;28;20953;-62
2021/06/30 11:50:02;;;;;;;18.90;17.00;;;;;;;;;;5072988;28;20486;-63
2021/06/30 11:52:29;;;;;;;16.73;15.10;;;;;;;;;;5072729;28;20827;-61
2021/06/30 11:54:57;;;;;;;16.30;14.13;;;;;;;;;;5072849;28;20520;-61
2021/06/30 11:57:25;;;;;;;22.93;15.40;;;;;;;;;;5072999;28;20455;-61
2021/06/30 12:00:03;;;;;;;16.47;14.77;;;;;;;;;;5072936;28;20942;-62
2021/06/30 12:02:44;;;;;;;17.13;15.30;;;;;;;;;;5073092;28;20435;-62
2021/06/30 12:05:12;;;;;;;14.90;13.47;;;;;;;;;;5072853;28;20478;-61
2021/06/30 12:07:43;;;;;;;17.20;13.83;;;;;;;;;;5073022;28;20454;-62
2021/06/30 12:10:10;;;;;;;15.73;14.23;;;;;;;;;;5072857;28;20483;-61
2021/06/30 12:12:38;;;;;;;17.40;13.27;;;;;;;;;;5073055;28;20447;-62
2021/06/30 12:15:08;;;;;;;14.57;13.17;;;;;;;;;;5073595;28;20536;-62
2021/06/30 12:17:35;;;;;;;14.20;12.80;;;;;;;;;;5072682;28;20566;-61
2021/06/30 12:20:05;;;;;;;15.67;13.97;;;;;;;;;;5072430;28;20583;-62
2021/06/30 12:22:34;;;;;;;17.20;13.07;;;;;;;;;;5072378;28;20497;-61
2021/06/30 12:25:03;;;;;;;15.80;14.30;;;;;;;;;;5072599;28;20483;-62
2021/06/30 12:27:33;;;;;;;15.80;14.03;;;;;;;;;;5072139;28;20483;-62
2021/06/30 12:30:01;;;;;;;16.33;14.70;;;;;;;;;;5076404;28;20475;-62
2021/06/30 12:32:30;;;;;;;14.63;13.13;;;;;;;;;;5076518;28;20456;-61
2021/06/30 12:35:01;;;;;;;14.77;13.30;;;;;;;;;;5076157;28;20847;-62
2021/06/30 12:37:29;;;;;;;14.97;13.63;;;;;;;;;;5076769;28;20444;-63
2021/06/30 12:39:58;;;;;;;14.87;13.37;;;;;;;;;;5077787;28;20493;-62
2021/06/30 12:42:41;;;;;;;14.83;13.43;;;;;;;;;;5076742;28;20480;-63
2021/06/30 12:45:09;;;;;;;14.63;13.30;;;;;;;;;;5076419;28;20514;-63
2021/06/30 12:47:39;;;;;;;19.37;15.30;;;;;;;;;;5076494;28;20443;-61
2021/06/30 12:50:08;;;;;;;16.23;14.63;;;;;;;;;;5075936;28;20469;-62
2021/06/30 12:52:35;;;;;;;15.80;14.40;;;;;;;;;;5076089;28;20438;-60
2021/06/30 12:55:04;;;;;;;18.10;16.30;;;;;;;;;;5075452;28;20468;-59
2021/06/30 12:57:32;;;;;;;16.43;14.83;;;;;;;;;;5075601;28;20515;-60
2021/06/30 13:00:12;;;;;;;16.70;15.00;;;;;;;;;;5075525;28;20932;-61
2021/06/30 13:02:40;;;;;;;18.87;15.43;;;;;;;;;;5075822;28;20501;-60
2021/06/30 13:05:24;;;;;;;17.57;15.83;;;;;;;;;;5075569;28;21048;-61
2021/06/30 13:07:53;;;;;;;16.60;14.90;;;;;;;;;;5075524;28;20467;-61
2021/06/30 13:10:21;;;;;;;17.33;15.60;;;;;;;;;;5076003;28;20506;-61
2021/06/30 13:12:48;;;;;;;17.33;15.73;;;;;;;;;;5075743;28;20523;-61
2021/06/30 13:15:23;;;;;;;18.20;16.40;;;;;;;;;;5075280;28;20953;-62
2021/06/30 13:17:51;;;;;;;17.40;15.80;;;;;;;;;;5075551;28;20500;-61
2021/06/30 13:20:19;;;;;;;17.90;16.10;;;;;;;;;;5075323;28;20442;-61
2021/06/30 13:22:47;;;;;;;17.17;15.47;;;;;;;;;;5075920;28;20485;-61
2021/06/30 13:25:16;;;;;;;17.00;15.40;;;;;;;;;;5075436;28;20530;-61
2021/06/30 13:27:45;;;;;;;16.33;14.83;;;;;;;;;;5075891;28;20513;-61
2021/06/30 13:35:55;;;;;;;17.70;15.80;;;;;;;;;;5075351;28;20862;-61
2021/06/30 13:38:31;;;;;;;18.83;16.83;;;;;;;;;;5075603;28;20451;-62
2021/06/30 13:40:59;;;;;;;17.60;15.43;;;;;;;;;;5075191;28;20427;-61
2021/06/30 13:43:27;;;;;;;18.77;15.63;;;;;;;;;;5075196;28;20854;-60
2021/06/30 13:45:55;;;;;;;16.73;14.90;;;;;;;;;;5075598;28;20459;-61
2021/06/30 13:48:24;;;;;;;17.60;14.70;;;;;;;;;;5074969;28;20509;-61
2021/06/30 13:50:53;;;;;;;17.77;16.07;;;;;;;;;;5074957;28;21065;-62
2021/06/30 13:53:21;;;;;;;17.07;15.17;;;;;;;;;;5075245;28;20451;-59
2021/06/30 13:55:49;;;;;;;19.60;17.50;;;;;;;;;;5074693;28;20517;-60
2021/06/30 13:58:16;;;;;;;16.50;14.83;;;;;;;;;;5075244;28;20467;-60
2021/06/30 14:00:44;;;;;;;18.23;15.03;;;;;;;;;;5074938;28;20450;-61
2021/06/30 14:03:11;;;;;;;16.20;14.60;;;;;;;;;;5075254;28;20448;-61
2021/06/30 14:05:40;;;;;;;16.20;14.40;;;;;;;;;;5074748;28;20480;-60
2021/06/30 14:08:12;;;;;;;17.77;15.20;;;;;;;;;;5075236;28;20464;-59
2021/06/30 14:10:39;;;;;;;17.93;14.80;;;;;;;;;;5074393;28;20967;-59
2021/06/30 14:13:07;;;;;;;17.27;15.50;;;;;;;;;;5075752;28;20815;-60
2021/06/30 14:15:34;;;;;;;16.90;14.40;;;;;;;;;;5076666;28;20958;-60
2021/06/30 14:18:01;;;;;;;16.03;14.53;;;;;;;;;;5075417;28;20447;-60
2021/06/30 14:20:28;;;;;;;15.23;13.63;;;;;;;;;;5075266;28;20451;-59
2021/06/30 14:22:57;;;;;;;16.73;15.03;;;;;;;;;;5075509;28;20514;-60
2021/06/30 14:25:27;;;;;;;15.10;13.60;;;;;;;;;;5075055;28;20521;-60
2021/06/30 14:27:55;;;;;;;14.63;13.23;;;;;;;;;;5074944;28;21009;-61
2021/06/30 14:30:22;;;;;;;13.50;12.20;;;;;;;;;;5074650;28;20885;-60
2021/06/30 14:32:49;;;;;;;12.37;11.20;;;;;;;;;;5074637;28;20517;-59
2021/06/30 14:35:17;;;;;;;12.10;11.00;;;;;;;;;;5074649;28;20881;-60
2021/06/30 14:37:45;;;;;;;13.20;9.67;;;;;;;;;;5074602;28;20557;-59
2021/06/30 14:40:15;;;;;;;11.07;9.97;;;;;;;;;;5077130;28;20597;-59
2021/06/30 14:42:42;;;;;;;11.10;10.00;;;;;;;;;;5074400;28;20448;-59